sensor_id;sensor_type;location;lat;lon;timestamp;P1;durP1;ratioP1;P2;durP2;ratioP2
65581;SDS011;52231;40.090;18.348;2022-09-30T00:01:52;8.63;;;3.05;;
65581;SDS011;52231;40.090;18.348;2022-09-30T00:04:21;13.10;;;3.22;;
65581;SDS011;52231;40.090;18.348;2022-09-30T00:06:52;18.40;;;5.55;;
65581;SDS011;52231;40.090;18.348;2022-09-30T00:09:21;44.15;;;14.65;;
65581;SDS011;52231;40.090;18.348;2022-09-30T00:11:49;112.72;;;37.47;;
65581;SDS011;52231;40.090;18.348;2022-09-30T00:14:20;85.82;;;27.38;;
65581;SDS011;52231;40.090;18.348;2022-09-30T00:16:49;109.50;;;33.55;;
65581;SDS011;52231;40.090;18.348;2022-09-30T00:19:18;118.00;;;37.47;;
65581;SDS011;52231;40.090;18.348;2022-09-30T00:21:46;125.63;;;37.50;;
65581;SDS011;52231;40.090;18.348;2022-09-30T00:24:14;115.47;;;34.53;;
65581;SDS011;52231;40.090;18.348;2022-09-30T00:26:42;73.43;;;23.48;;
65581;SDS011;52231;40.090;18.348;2022-09-30T00:29:10;71.28;;;21.98;;
65581;SDS011;52231;40.090;18.348;2022-09-30T00:31:38;72.95;;;19.80;;
65581;SDS011;52231;40.090;18.348;2022-09-30T00:34:06;68.35;;;19.42;;
65581;SDS011;52231;40.090;18.348;2022-09-30T00:39:25;69.15;;;28.48;;
65581;SDS011;52231;40.090;18.348;2022-09-30T00:41:56;58.20;;;25.30;;
65581;SDS011;52231;40.090;18.348;2022-09-30T00:49:43;13.10;;;4.68;;
65581;SDS011;52231;40.090;18.348;2022-09-30T00:52:11;19.45;;;4.43;;
65581;SDS011;52231;40.090;18.348;2022-09-30T00:57:08;11.30;;;4.20;;
65581;SDS011;52231;40.090;18.348;2022-09-30T00:59:40;11.43;;;4.07;;
65581;SDS011;52231;40.090;18.348;2022-09-30T01:02:14;20.10;;;4.22;;
65581;SDS011;52231;40.090;18.348;2022-09-30T01:04:42;18.70;;;4.75;;
65581;SDS011;52231;40.090;18.348;2022-09-30T01:07:12;14.45;;;4.28;;
65581;SDS011;52231;40.090;18.348;2022-09-30T01:09:41;21.33;;;4.90;;
65581;SDS011;52231;40.090;18.348;2022-09-30T01:12:12;17.70;;;4.30;;
65581;SDS011;52231;40.090;18.348;2022-09-30T01:14:45;14.77;;;4.55;;
65581;SDS011;52231;40.090;18.348;2022-09-30T01:17:34;11.90;;;4.40;;
65581;SDS011;52231;40.090;18.348;2022-09-30T01:22:52;16.83;;;4.72;;
65581;SDS011;52231;40.090;18.348;2022-09-30T01:28:34;19.75;;;4.82;;
65581;SDS011;52231;40.090;18.348;2022-09-30T01:34:01;15.20;;;4.75;;
65581;SDS011;52231;40.090;18.348;2022-09-30T01:36:45;16.77;;;4.60;;
65581;SDS011;52231;40.090;18.348;2022-09-30T01:39:37;14.05;;;4.53;;
65581;SDS011;52231;40.090;18.348;2022-09-30T01:45:34;16.35;;;5.53;;
65581;SDS011;52231;40.090;18.348;2022-09-30T01:50:45;21.48;;;4.90;;
65581;SDS011;52231;40.090;18.348;2022-09-30T01:53:42;22.48;;;5.13;;
65581;SDS011;52231;40.090;18.348;2022-09-30T02:01:57;17.08;;;4.65;;
65581;SDS011;52231;40.090;18.348;2022-09-30T02:04:40;18.67;;;4.57;;
65581;SDS011;52231;40.090;18.348;2022-09-30T02:07:14;17.35;;;5.10;;
65581;SDS011;52231;40.090;18.348;2022-09-30T02:10:00;22.27;;;6.28;;
65581;SDS011;52231;40.090;18.348;2022-09-30T02:12:36;20.25;;;5.82;;
65581;SDS011;52231;40.090;18.348;2022-09-30T02:15:08;21.70;;;5.88;;
65581;SDS011;52231;40.090;18.348;2022-09-30T02:17:42;19.45;;;5.88;;
65581;SDS011;52231;40.090;18.348;2022-09-30T02:20:25;18.92;;;5.88;;
65581;SDS011;52231;40.090;18.348;2022-09-30T02:23:40;16.08;;;6.10;;
65581;SDS011;52231;40.090;18.348;2022-09-30T02:25:58;22.75;;;6.00;;
65581;SDS011;52231;40.090;18.348;2022-09-30T02:28:50;28.27;;;5.55;;
65581;SDS011;52231;40.090;18.348;2022-09-30T02:31:23;23.35;;;6.35;;
65581;SDS011;52231;40.090;18.348;2022-09-30T02:34:29;20.42;;;6.25;;
65581;SDS011;52231;40.090;18.348;2022-09-30T02:37:14;14.27;;;6.00;;
65581;SDS011;52231;40.090;18.348;2022-09-30T02:42:28;24.67;;;6.72;;
65581;SDS011;52231;40.090;18.348;2022-09-30T02:45:02;20.15;;;6.45;;
65581;SDS011;52231;40.090;18.348;2022-09-30T02:53:25;20.63;;;6.55;;
65581;SDS011;52231;40.090;18.348;2022-09-30T02:56:07;17.58;;;6.07;;
65581;SDS011;52231;40.090;18.348;2022-09-30T02:58:39;23.08;;;6.35;;
65581;SDS011;52231;40.090;18.348;2022-09-30T03:01:10;17.77;;;6.18;;
65581;SDS011;52231;40.090;18.348;2022-09-30T03:04:15;21.23;;;8.30;;
65581;SDS011;52231;40.090;18.348;2022-09-30T03:06:36;20.13;;;5.90;;
65581;SDS011;52231;40.090;18.348;2022-09-30T03:09:05;18.65;;;6.10;;
65581;SDS011;52231;40.090;18.348;2022-09-30T03:11:35;16.27;;;6.00;;
65581;SDS011;52231;40.090;18.348;2022-09-30T03:16:48;18.40;;;6.13;;
65581;SDS011;52231;40.090;18.348;2022-09-30T03:19:36;15.65;;;6.05;;
65581;SDS011;52231;40.090;18.348;2022-09-30T03:30:26;21.70;;;7.22;;
65581;SDS011;52231;40.090;18.348;2022-09-30T03:36:00;18.50;;;6.13;;
65581;SDS011;52231;40.090;18.348;2022-09-30T03:44:01;21.13;;;6.38;;
65581;SDS011;52231;40.090;18.348;2022-09-30T03:46:56;19.67;;;5.88;;
65581;SDS011;52231;40.090;18.348;2022-09-30T03:49:40;21.48;;;5.47;;
65581;SDS011;52231;40.090;18.348;2022-09-30T03:52:12;21.98;;;6.18;;
65581;SDS011;52231;40.090;18.348;2022-09-30T03:54:49;21.88;;;6.65;;
65581;SDS011;52231;40.090;18.348;2022-09-30T03:57:20;20.08;;;5.85;;
65581;SDS011;52231;40.090;18.348;2022-09-30T03:59:48;21.35;;;6.18;;
65581;SDS011;52231;40.090;18.348;2022-09-30T04:02:16;18.90;;;7.20;;
65581;SDS011;52231;40.090;18.348;2022-09-30T04:04:44;21.33;;;6.32;;
65581;SDS011;52231;40.090;18.348;2022-09-30T04:07:13;27.83;;;8.18;;
65581;SDS011;52231;40.090;18.348;2022-09-30T04:09:41;19.55;;;6.10;;
65581;SDS011;52231;40.090;18.348;2022-09-30T04:12:09;17.33;;;6.30;;
65581;SDS011;52231;40.090;18.348;2022-09-30T04:14:37;23.98;;;6.57;;
65581;SDS011;52231;40.090;18.348;2022-09-30T04:17:05;26.98;;;7.03;;
65581;SDS011;52231;40.090;18.348;2022-09-30T04:22:06;18.85;;;5.80;;
65581;SDS011;52231;40.090;18.348;2022-09-30T04:24:35;24.85;;;6.57;;
65581;SDS011;52231;40.090;18.348;2022-09-30T04:27:03;27.05;;;6.85;;
65581;SDS011;52231;40.090;18.348;2022-09-30T04:31:59;19.00;;;6.80;;
65581;SDS011;52231;40.090;18.348;2022-09-30T04:34:27;20.45;;;6.65;;
65581;SDS011;52231;40.090;18.348;2022-09-30T04:36:55;20.90;;;7.05;;
65581;SDS011;52231;40.090;18.348;2022-09-30T04:39:23;18.00;;;7.15;;
65581;SDS011;52231;40.090;18.348;2022-09-30T04:41:52;23.73;;;7.40;;
65581;SDS011;52231;40.090;18.348;2022-09-30T04:44:20;21.20;;;8.23;;
65581;SDS011;52231;40.090;18.348;2022-09-30T04:46:48;19.92;;;7.68;;
65581;SDS011;52231;40.090;18.348;2022-09-30T04:49:17;19.20;;;7.93;;
65581;SDS011;52231;40.090;18.348;2022-09-30T04:51:48;19.60;;;6.68;;
65581;SDS011;52231;40.090;18.348;2022-09-30T04:54:16;16.50;;;8.70;;
65581;SDS011;52231;40.090;18.348;2022-09-30T04:56:46;25.25;;;7.25;;
65581;SDS011;52231;40.090;18.348;2022-09-30T04:59:15;24.00;;;8.30;;
65581;SDS011;52231;40.090;18.348;2022-09-30T05:01:43;22.77;;;7.75;;
65581;SDS011;52231;40.090;18.348;2022-09-30T05:04:11;22.73;;;7.65;;
65581;SDS011;52231;40.090;18.348;2022-09-30T05:06:39;21.95;;;7.32;;
65581;SDS011;52231;40.090;18.348;2022-09-30T05:09:07;18.38;;;7.32;;
65581;SDS011;52231;40.090;18.348;2022-09-30T05:11:35;22.80;;;7.50;;
65581;SDS011;52231;40.090;18.348;2022-09-30T05:14:08;21.20;;;7.30;;
65581;SDS011;52231;40.090;18.348;2022-09-30T05:16:36;19.92;;;7.28;;
65581;SDS011;52231;40.090;18.348;2022-09-30T05:21:32;24.65;;;7.13;;
65581;SDS011;52231;40.090;18.348;2022-09-30T05:24:02;21.98;;;7.03;;
65581;SDS011;52231;40.090;18.348;2022-09-30T05:26:30;17.80;;;6.88;;
65581;SDS011;52231;40.090;18.348;2022-09-30T05:28:59;22.85;;;7.43;;
65581;SDS011;52231;40.090;18.348;2022-09-30T05:31:27;24.75;;;7.38;;
65581;SDS011;52231;40.090;18.348;2022-09-30T05:33:55;23.20;;;7.05;;
65581;SDS011;52231;40.090;18.348;2022-09-30T05:36:24;20.65;;;6.18;;
65581;SDS011;52231;40.090;18.348;2022-09-30T05:38:52;19.45;;;5.93;;
65581;SDS011;52231;40.090;18.348;2022-09-30T05:41:21;25.63;;;6.47;;
65581;SDS011;52231;40.090;18.348;2022-09-30T05:43:50;15.73;;;5.53;;
65581;SDS011;52231;40.090;18.348;2022-09-30T05:48:46;18.55;;;5.70;;
65581;SDS011;52231;40.090;18.348;2022-09-30T05:51:14;14.60;;;4.32;;
65581;SDS011;52231;40.090;18.348;2022-09-30T05:56:11;21.95;;;4.47;;
65581;SDS011;52231;40.090;18.348;2022-09-30T05:58:39;16.95;;;4.18;;
65581;SDS011;52231;40.090;18.348;2022-09-30T06:01:12;17.45;;;3.55;;
65581;SDS011;52231;40.090;18.348;2022-09-30T06:03:44;13.60;;;3.13;;
65581;SDS011;52231;40.090;18.348;2022-09-30T06:06:13;15.65;;;4.05;;
65581;SDS011;52231;40.090;18.348;2022-09-30T06:08:42;14.07;;;2.90;;
65581;SDS011;52231;40.090;18.348;2022-09-30T06:11:11;12.75;;;3.58;;
65581;SDS011;52231;40.090;18.348;2022-09-30T06:13:42;11.93;;;3.22;;
65581;SDS011;52231;40.090;18.348;2022-09-30T06:16:11;11.10;;;3.00;;
65581;SDS011;52231;40.090;18.348;2022-09-30T06:18:41;16.30;;;3.25;;
65581;SDS011;52231;40.090;18.348;2022-09-30T06:21:12;14.77;;;3.38;;
65581;SDS011;52231;40.090;18.348;2022-09-30T06:23:42;11.50;;;3.03;;
65581;SDS011;52231;40.090;18.348;2022-09-30T06:26:11;12.38;;;3.03;;
65581;SDS011;52231;40.090;18.348;2022-09-30T06:28:42;10.65;;;2.80;;
65581;SDS011;52231;40.090;18.348;2022-09-30T06:31:11;10.57;;;2.78;;
65581;SDS011;52231;40.090;18.348;2022-09-30T06:33:42;12.32;;;2.50;;
65581;SDS011;52231;40.090;18.348;2022-09-30T06:36:10;15.20;;;2.80;;
65581;SDS011;52231;40.090;18.348;2022-09-30T06:41:07;11.95;;;3.22;;
65581;SDS011;52231;40.090;18.348;2022-09-30T06:43:38;11.57;;;2.80;;
65581;SDS011;52231;40.090;18.348;2022-09-30T06:46:06;14.70;;;2.97;;
65581;SDS011;52231;40.090;18.348;2022-09-30T06:48:41;14.48;;;2.78;;
65581;SDS011;52231;40.090;18.348;2022-09-30T06:51:09;12.77;;;2.30;;
65581;SDS011;52231;40.090;18.348;2022-09-30T06:53:37;16.17;;;3.50;;
65581;SDS011;52231;40.090;18.348;2022-09-30T06:56:06;10.60;;;3.45;;
65581;SDS011;52231;40.090;18.348;2022-09-30T07:01:03;11.98;;;2.58;;
65581;SDS011;52231;40.090;18.348;2022-09-30T07:03:33;14.38;;;2.70;;
65581;SDS011;52231;40.090;18.348;2022-09-30T07:06:03;9.77;;;2.17;;
65581;SDS011;52231;40.090;18.348;2022-09-30T07:08:33;14.30;;;2.97;;
65581;SDS011;52231;40.090;18.348;2022-09-30T07:11:04;11.63;;;2.35;;
65581;SDS011;52231;40.090;18.348;2022-09-30T07:13:44;11.38;;;2.30;;
65581;SDS011;52231;40.090;18.348;2022-09-30T07:16:32;14.02;;;2.30;;
65581;SDS011;52231;40.090;18.348;2022-09-30T07:19:01;10.30;;;2.30;;
65581;SDS011;52231;40.090;18.348;2022-09-30T07:21:30;11.25;;;2.00;;
65581;SDS011;52231;40.090;18.348;2022-09-30T07:24:03;9.40;;;2.17;;
65581;SDS011;52231;40.090;18.348;2022-09-30T07:26:31;10.85;;;2.17;;
65581;SDS011;52231;40.090;18.348;2022-09-30T07:29:00;11.35;;;2.78;;
65581;SDS011;52231;40.090;18.348;2022-09-30T07:31:31;7.80;;;2.13;;
65581;SDS011;52231;40.090;18.348;2022-09-30T07:34:02;8.07;;;2.30;;
65581;SDS011;52231;40.090;18.348;2022-09-30T07:36:36;10.57;;;2.22;;
65581;SDS011;52231;40.090;18.348;2022-09-30T07:39:08;12.50;;;2.40;;
65581;SDS011;52231;40.090;18.348;2022-09-30T07:41:38;6.90;;;2.13;;
65581;SDS011;52231;40.090;18.348;2022-09-30T07:44:09;7.43;;;1.92;;
65581;SDS011;52231;40.090;18.348;2022-09-30T07:46:41;9.82;;;2.22;;
65581;SDS011;52231;40.090;18.348;2022-09-30T07:49:14;9.40;;;1.92;;
65581;SDS011;52231;40.090;18.348;2022-09-30T07:51:55;8.02;;;2.10;;
65581;SDS011;52231;40.090;18.348;2022-09-30T07:54:26;9.80;;;1.90;;
65581;SDS011;52231;40.090;18.348;2022-09-30T07:57:14;6.43;;;2.05;;
65581;SDS011;52231;40.090;18.348;2022-09-30T07:59:42;7.93;;;2.10;;
65581;SDS011;52231;40.090;18.348;2022-09-30T08:04:42;8.75;;;2.75;;
65581;SDS011;52231;40.090;18.348;2022-09-30T08:07:11;4.10;;;1.63;;
65581;SDS011;52231;40.090;18.348;2022-09-30T08:09:40;8.15;;;1.77;;
65581;SDS011;52231;40.090;18.348;2022-09-30T08:12:09;10.70;;;2.40;;
65581;SDS011;52231;40.090;18.348;2022-09-30T08:14:37;12.25;;;3.75;;
65581;SDS011;52231;40.090;18.348;2022-09-30T08:17:05;10.82;;;2.67;;
65581;SDS011;52231;40.090;18.348;2022-09-30T08:22:01;7.22;;;1.55;;
65581;SDS011;52231;40.090;18.348;2022-09-30T08:24:30;9.55;;;1.88;;
65581;SDS011;52231;40.090;18.348;2022-09-30T08:26:58;10.93;;;1.80;;
65581;SDS011;52231;40.090;18.348;2022-09-30T08:29:26;5.88;;;1.60;;
65581;SDS011;52231;40.090;18.348;2022-09-30T08:32:17;7.60;;;1.60;;
65581;SDS011;52231;40.090;18.348;2022-09-30T08:34:45;6.32;;;1.55;;
65581;SDS011;52231;40.090;18.348;2022-09-30T08:37:13;5.97;;;1.70;;
65581;SDS011;52231;40.090;18.348;2022-09-30T08:39:41;8.38;;;1.95;;
65581;SDS011;52231;40.090;18.348;2022-09-30T08:48:38;5.10;;;1.55;;
65581;SDS011;52231;40.090;18.348;2022-09-30T08:50:50;6.32;;;1.45;;
65581;SDS011;52231;40.090;18.348;2022-09-30T08:53:37;6.82;;;1.70;;
65581;SDS011;52231;40.090;18.348;2022-09-30T08:56:11;7.55;;;1.75;;
65581;SDS011;52231;40.090;18.348;2022-09-30T08:58:46;8.15;;;1.60;;
65581;SDS011;52231;40.090;18.348;2022-09-30T09:04:03;6.07;;;1.50;;
65581;SDS011;52231;40.090;18.348;2022-09-30T09:09:36;3.78;;;1.40;;
65581;SDS011;52231;40.090;18.348;2022-09-30T09:14:59;6.70;;;1.40;;
65581;SDS011;52231;40.090;18.348;2022-09-30T09:17:35;4.97;;;1.35;;
65581;SDS011;52231;40.090;18.348;2022-09-30T09:20:27;6.13;;;1.30;;
65581;SDS011;52231;40.090;18.348;2022-09-30T09:23:02;3.83;;;1.30;;
65581;SDS011;52231;40.090;18.348;2022-09-30T09:25:38;7.03;;;1.40;;
65581;SDS011;52231;40.090;18.348;2022-09-30T09:31:22;4.38;;;1.23;;
65581;SDS011;52231;40.090;18.348;2022-09-30T09:33:54;4.50;;;1.15;;
65581;SDS011;52231;40.090;18.348;2022-09-30T09:39:06;6.18;;;1.55;;
65581;SDS011;52231;40.090;18.348;2022-09-30T09:44:41;7.72;;;1.50;;
65581;SDS011;52231;40.090;18.348;2022-09-30T09:47:11;10.68;;;1.67;;
65581;SDS011;52231;40.090;18.348;2022-09-30T09:49:44;4.82;;;1.45;;
65581;SDS011;52231;40.090;18.348;2022-09-30T09:54:54;8.32;;;1.65;;
65581;SDS011;52231;40.090;18.348;2022-09-30T09:57:24;7.05;;;1.50;;
65581;SDS011;52231;40.090;18.348;2022-09-30T09:59:55;3.95;;;1.20;;
65581;SDS011;52231;40.090;18.348;2022-09-30T10:02:26;4.95;;;1.30;;
65581;SDS011;52231;40.090;18.348;2022-09-30T10:04:56;4.35;;;1.27;;
65581;SDS011;52231;40.090;18.348;2022-09-30T10:07:31;6.55;;;1.23;;
65581;SDS011;52231;40.090;18.348;2022-09-30T10:12:47;5.15;;;1.48;;
65581;SDS011;52231;40.090;18.348;2022-09-30T10:15:19;7.40;;;1.20;;
65581;SDS011;52231;40.090;18.348;2022-09-30T10:17:53;7.88;;;1.17;;
65581;SDS011;52231;40.090;18.348;2022-09-30T10:20:25;6.82;;;1.60;;
65581;SDS011;52231;40.090;18.348;2022-09-30T10:22:59;4.45;;;1.00;;
65581;SDS011;52231;40.090;18.348;2022-09-30T10:25:34;4.55;;;1.20;;
65581;SDS011;52231;40.090;18.348;2022-09-30T10:28:21;5.53;;;1.48;;
65581;SDS011;52231;40.090;18.348;2022-09-30T10:31:01;4.82;;;1.10;;
65581;SDS011;52231;40.090;18.348;2022-09-30T10:33:35;6.63;;;1.45;;
65581;SDS011;52231;40.090;18.348;2022-09-30T10:36:18;7.47;;;1.60;;
65581;SDS011;52231;40.090;18.348;2022-09-30T10:38:58;2.92;;;1.20;;
65581;SDS011;52231;40.090;18.348;2022-09-30T10:41:33;5.32;;;1.30;;
65581;SDS011;52231;40.090;18.348;2022-09-30T10:44:04;6.43;;;1.33;;
65581;SDS011;52231;40.090;18.348;2022-09-30T10:46:45;8.68;;;1.45;;
65581;SDS011;52231;40.090;18.348;2022-09-30T10:52:01;11.10;;;1.50;;
65581;SDS011;52231;40.090;18.348;2022-09-30T10:57:24;9.85;;;2.15;;
65581;SDS011;52231;40.090;18.348;2022-09-30T10:59:59;5.25;;;1.73;;
65581;SDS011;52231;40.090;18.348;2022-09-30T11:02:38;7.90;;;1.42;;
65581;SDS011;52231;40.090;18.348;2022-09-30T11:25:00;8.52;;;1.55;;
65581;SDS011;52231;40.090;18.348;2022-09-30T11:30:23;5.68;;;1.70;;
65581;SDS011;52231;40.090;18.348;2022-09-30T11:33:10;8.02;;;1.90;;
65581;SDS011;52231;40.090;18.348;2022-09-30T11:36:00;6.90;;;1.60;;
65581;SDS011;52231;40.090;18.348;2022-09-30T11:41:52;6.60;;;1.52;;
65581;SDS011;52231;40.090;18.348;2022-09-30T11:44:34;8.77;;;1.58;;
65581;SDS011;52231;40.090;18.348;2022-09-30T11:50:09;5.57;;;1.10;;
65581;SDS011;52231;40.090;18.348;2022-09-30T11:58:08;4.65;;;1.50;;
65581;SDS011;52231;40.090;18.348;2022-09-30T12:00:57;5.88;;;1.40;;
65581;SDS011;52231;40.090;18.348;2022-09-30T12:03:33;8.48;;;1.60;;
65581;SDS011;52231;40.090;18.348;2022-09-30T12:06:10;7.78;;;1.50;;
65581;SDS011;52231;40.090;18.348;2022-09-30T12:09:10;5.05;;;1.30;;
65581;SDS011;52231;40.090;18.348;2022-09-30T12:11:49;6.05;;;1.40;;
65581;SDS011;52231;40.090;18.348;2022-09-30T12:14:24;2.28;;;1.13;;
65581;SDS011;52231;40.090;18.348;2022-09-30T12:17:30;7.18;;;1.25;;
65581;SDS011;52231;40.090;18.348;2022-09-30T12:20:26;6.28;;;1.40;;
65581;SDS011;52231;40.090;18.348;2022-09-30T12:23:12;6.50;;;1.70;;
65581;SDS011;52231;40.090;18.348;2022-09-30T12:25:55;6.32;;;1.48;;
65581;SDS011;52231;40.090;18.348;2022-09-30T12:28:45;8.18;;;1.55;;
65581;SDS011;52231;40.090;18.348;2022-09-30T12:42:43;8.10;;;1.67;;
65581;SDS011;52231;40.090;18.348;2022-09-30T12:47:57;5.47;;;1.23;;
65581;SDS011;52231;40.090;18.348;2022-09-30T12:50:39;6.45;;;1.35;;
65581;SDS011;52231;40.090;18.348;2022-09-30T12:53:32;2.53;;;0.93;;
65581;SDS011;52231;40.090;18.348;2022-09-30T12:56:19;4.32;;;1.35;;
65581;SDS011;52231;40.090;18.348;2022-09-30T12:58:57;9.77;;;1.60;;
65581;SDS011;52231;40.090;18.348;2022-09-30T13:01:27;7.88;;;1.38;;
65581;SDS011;52231;40.090;18.348;2022-09-30T13:07:03;8.55;;;1.83;;
65581;SDS011;52231;40.090;18.348;2022-09-30T13:22:53;9.93;;;1.90;;
65581;SDS011;52231;40.090;18.348;2022-09-30T13:25:22;5.70;;;1.52;;
65581;SDS011;52231;40.090;18.348;2022-09-30T13:27:51;6.90;;;1.60;;
65581;SDS011;52231;40.090;18.348;2022-09-30T13:30:36;5.32;;;1.55;;
65581;SDS011;52231;40.090;18.348;2022-09-30T13:33:24;4.32;;;1.42;;
65581;SDS011;52231;40.090;18.348;2022-09-30T13:36:16;8.65;;;1.58;;
65581;SDS011;52231;40.090;18.348;2022-09-30T13:39:06;7.53;;;1.75;;
65581;SDS011;52231;40.090;18.348;2022-09-30T13:42:24;8.95;;;1.55;;
65581;SDS011;52231;40.090;18.348;2022-09-30T13:50:50;5.40;;;1.40;;
65581;SDS011;52231;40.090;18.348;2022-09-30T13:53:26;5.53;;;1.40;;
65581;SDS011;52231;40.090;18.348;2022-09-30T13:56:08;6.85;;;1.50;;
65581;SDS011;52231;40.090;18.348;2022-09-30T14:01:26;5.25;;;1.50;;
65581;SDS011;52231;40.090;18.348;2022-09-30T14:12:55;9.05;;;1.52;;
65581;SDS011;52231;40.090;18.348;2022-09-30T14:15:45;6.38;;;1.75;;
65581;SDS011;52231;40.090;18.348;2022-09-30T14:18:44;11.60;;;2.00;;
65581;SDS011;52231;40.090;18.348;2022-09-30T14:24:26;7.78;;;1.55;;
65581;SDS011;52231;40.090;18.348;2022-09-30T14:32:25;5.45;;;1.63;;
65581;SDS011;52231;40.090;18.348;2022-09-30T14:35:32;11.52;;;2.10;;
65581;SDS011;52231;40.090;18.348;2022-09-30T14:38:04;7.10;;;2.00;;
65581;SDS011;52231;40.090;18.348;2022-09-30T14:41:04;7.57;;;2.15;;
65581;SDS011;52231;40.090;18.348;2022-09-30T14:43:41;4.85;;;1.67;;
65581;SDS011;52231;40.090;18.348;2022-09-30T14:46:14;6.20;;;1.65;;
65581;SDS011;52231;40.090;18.348;2022-09-30T14:49:15;10.48;;;2.35;;
65581;SDS011;52231;40.090;18.348;2022-09-30T14:51:48;8.45;;;2.35;;
65581;SDS011;52231;40.090;18.348;2022-09-30T14:54:18;9.85;;;2.30;;
65581;SDS011;52231;40.090;18.348;2022-09-30T14:56:48;9.95;;;2.35;;
65581;SDS011;52231;40.090;18.348;2022-09-30T15:01:57;8.60;;;1.98;;
65581;SDS011;52231;40.090;18.348;2022-09-30T15:04:32;7.57;;;1.88;;
65581;SDS011;52231;40.090;18.348;2022-09-30T15:07:21;8.10;;;2.45;;
65581;SDS011;52231;40.090;18.348;2022-09-30T15:09:49;12.00;;;2.10;;
65581;SDS011;52231;40.090;18.348;2022-09-30T15:12:19;10.95;;;2.47;;
65581;SDS011;52231;40.090;18.348;2022-09-30T15:19:56;7.80;;;1.88;;
65581;SDS011;52231;40.090;18.348;2022-09-30T15:22:26;6.63;;;1.70;;
65581;SDS011;52231;40.090;18.348;2022-09-30T15:24:56;7.45;;;2.05;;
65581;SDS011;52231;40.090;18.348;2022-09-30T15:27:27;8.70;;;1.95;;
65581;SDS011;52231;40.090;18.348;2022-09-30T15:29:58;7.80;;;1.65;;
65581;SDS011;52231;40.090;18.348;2022-09-30T15:32:30;8.55;;;1.90;;
65581;SDS011;52231;40.090;18.348;2022-09-30T15:35:03;9.50;;;2.15;;
65581;SDS011;52231;40.090;18.348;2022-09-30T15:37:43;5.53;;;1.75;;
65581;SDS011;52231;40.090;18.348;2022-09-30T15:40:13;10.55;;;2.03;;
65581;SDS011;52231;40.090;18.348;2022-09-30T15:43:33;11.15;;;2.30;;
65581;SDS011;52231;40.090;18.348;2022-09-30T15:46:14;8.30;;;1.85;;
65581;SDS011;52231;40.090;18.348;2022-09-30T15:48:46;6.20;;;1.90;;
65581;SDS011;52231;40.090;18.348;2022-09-30T15:53:57;13.88;;;2.33;;
65581;SDS011;52231;40.090;18.348;2022-09-30T15:56:31;7.03;;;1.95;;
65581;SDS011;52231;40.090;18.348;2022-09-30T16:12:19;11.82;;;2.38;;
65581;SDS011;52231;40.090;18.348;2022-09-30T16:14:57;8.55;;;2.10;;
65581;SDS011;52231;40.090;18.348;2022-09-30T16:17:37;7.50;;;2.03;;
65581;SDS011;52231;40.090;18.348;2022-09-30T16:27:59;10.68;;;2.45;;
65581;SDS011;52231;40.090;18.348;2022-09-30T16:30:40;11.60;;;2.55;;
65581;SDS011;52231;40.090;18.348;2022-09-30T16:33:11;13.32;;;2.88;;
65581;SDS011;52231;40.090;18.348;2022-09-30T16:35:41;9.30;;;2.50;;
65581;SDS011;52231;40.090;18.348;2022-09-30T16:38:14;9.30;;;2.45;;
65581;SDS011;52231;40.090;18.348;2022-09-30T16:41:02;11.48;;;2.35;;
65581;SDS011;52231;40.090;18.348;2022-09-30T16:43:32;10.95;;;2.65;;
65581;SDS011;52231;40.090;18.348;2022-09-30T16:46:00;7.50;;;2.20;;
65581;SDS011;52231;40.090;18.348;2022-09-30T16:51:13;12.80;;;2.30;;
65581;SDS011;52231;40.090;18.348;2022-09-30T16:53:43;10.73;;;2.22;;
65581;SDS011;52231;40.090;18.348;2022-09-30T16:56:14;8.55;;;2.60;;
65581;SDS011;52231;40.090;18.348;2022-09-30T16:58:45;11.10;;;2.60;;
65581;SDS011;52231;40.090;18.348;2022-09-30T17:01:18;8.07;;;2.20;;
65581;SDS011;52231;40.090;18.348;2022-09-30T17:03:47;8.95;;;2.33;;
65581;SDS011;52231;40.090;18.348;2022-09-30T17:06:16;9.25;;;2.42;;
65581;SDS011;52231;40.090;18.348;2022-09-30T17:08:50;8.80;;;2.35;;
65581;SDS011;52231;40.090;18.348;2022-09-30T17:11:23;8.50;;;2.35;;
65581;SDS011;52231;40.090;18.348;2022-09-30T17:13:57;9.43;;;2.40;;
65581;SDS011;52231;40.090;18.348;2022-09-30T17:16:26;8.82;;;2.40;;
65581;SDS011;52231;40.090;18.348;2022-09-30T17:18:55;9.85;;;2.50;;
65581;SDS011;52231;40.090;18.348;2022-09-30T17:21:23;6.15;;;2.15;;
65581;SDS011;52231;40.090;18.348;2022-09-30T17:23:53;14.90;;;2.95;;
65581;SDS011;52231;40.090;18.348;2022-09-30T17:26:22;12.57;;;2.30;;
65581;SDS011;52231;40.090;18.348;2022-09-30T17:31:18;11.45;;;2.40;;
65581;SDS011;52231;40.090;18.348;2022-09-30T17:33:46;6.60;;;1.85;;
65581;SDS011;52231;40.090;18.348;2022-09-30T17:38:42;8.82;;;2.60;;
65581;SDS011;52231;40.090;18.348;2022-09-30T17:43:58;7.35;;;1.98;;
65581;SDS011;52231;40.090;18.348;2022-09-30T17:46:37;12.25;;;2.40;;
65581;SDS011;52231;40.090;18.348;2022-09-30T17:49:08;8.57;;;2.42;;
65581;SDS011;52231;40.090;18.348;2022-09-30T17:51:37;8.75;;;2.20;;
65581;SDS011;52231;40.090;18.348;2022-09-30T17:56:34;5.00;;;1.75;;
65581;SDS011;52231;40.090;18.348;2022-09-30T17:59:04;9.82;;;2.50;;
65581;SDS011;52231;40.090;18.348;2022-09-30T18:01:33;5.90;;;2.30;;
65581;SDS011;52231;40.090;18.348;2022-09-30T18:04:02;7.18;;;2.10;;
65581;SDS011;52231;40.090;18.348;2022-09-30T18:06:29;7.05;;;2.08;;
65581;SDS011;52231;40.090;18.348;2022-09-30T18:08:58;8.05;;;2.03;;
65581;SDS011;52231;40.090;18.348;2022-09-30T18:13:58;7.72;;;2.10;;
65581;SDS011;52231;40.090;18.348;2022-09-30T18:16:27;8.60;;;2.30;;
65581;SDS011;52231;40.090;18.348;2022-09-30T18:18:57;7.90;;;2.05;;
65581;SDS011;52231;40.090;18.348;2022-09-30T18:21:27;9.93;;;2.47;;
65581;SDS011;52231;40.090;18.348;2022-09-30T18:24:16;9.27;;;2.13;;
65581;SDS011;52231;40.090;18.348;2022-09-30T18:27:05;4.80;;;1.90;;
65581;SDS011;52231;40.090;18.348;2022-09-30T18:29:33;7.13;;;2.97;;
65581;SDS011;52231;40.090;18.348;2022-09-30T18:34:30;8.27;;;2.00;;
65581;SDS011;52231;40.090;18.348;2022-09-30T18:36:59;11.32;;;2.38;;
65581;SDS011;52231;40.090;18.348;2022-09-30T18:39:33;10.52;;;2.30;;
65581;SDS011;52231;40.090;18.348;2022-09-30T18:42:04;8.35;;;2.60;;
65581;SDS011;52231;40.090;18.348;2022-09-30T18:44:32;9.65;;;2.72;;
65581;SDS011;52231;40.090;18.348;2022-09-30T18:47:04;9.13;;;2.10;;
65581;SDS011;52231;40.090;18.348;2022-09-30T18:49:32;11.23;;;2.03;;
65581;SDS011;52231;40.090;18.348;2022-09-30T18:54:31;11.07;;;2.40;;
65581;SDS011;52231;40.090;18.348;2022-09-30T18:57:01;5.32;;;1.98;;
65581;SDS011;52231;40.090;18.348;2022-09-30T18:59:29;7.80;;;2.40;;
65581;SDS011;52231;40.090;18.348;2022-09-30T19:01:58;6.82;;;2.42;;
65581;SDS011;52231;40.090;18.348;2022-09-30T19:04:27;9.02;;;2.78;;
65581;SDS011;52231;40.090;18.348;2022-09-30T19:06:55;10.15;;;2.47;;
65581;SDS011;52231;40.090;18.348;2022-09-30T19:09:24;11.02;;;2.45;;
65581;SDS011;52231;40.090;18.348;2022-09-30T19:11:53;11.43;;;2.53;;
65581;SDS011;52231;40.090;18.348;2022-09-30T19:14:22;9.50;;;2.70;;
65581;SDS011;52231;40.090;18.348;2022-09-30T19:16:50;12.18;;;2.95;;
65581;SDS011;52231;40.090;18.348;2022-09-30T19:19:19;11.35;;;2.38;;
65581;SDS011;52231;40.090;18.348;2022-09-30T19:21:50;9.38;;;2.55;;
65581;SDS011;52231;40.090;18.348;2022-09-30T19:24:18;9.43;;;2.45;;